Time;durP1;ratioP1;P1;durP2;ratioP2;P2;SDS_P1;SDS_P2;PMS_P1;PMS_P2;Temp;Humidity;BMP_temperature;BMP_pressure;BME280_temperature;BME280_humidity;BME280_pressure;Samples;Min_cycle;Max_cycle;Signal;HPM_P1;HPM_P2
2022/01/28 00:01:04;;;;;;;25.12;17.25;;;;;;;1.24;77.11;98619.00;1760955;81;21017;-42
2022/01/28 00:03:35;;;;;;;26.80;17.10;;;;;;;1.21;77.32;98614.86;1759088;81;21196;-41
2022/01/28 00:06:03;;;;;;;24.60;16.62;;;;;;;1.18;77.39;98606.13;1735611;81;21023;-41
2022/01/28 00:08:31;;;;;;;24.35;16.10;;;;;;;1.19;77.48;98614.37;1736298;81;21467;-41
2022/01/28 00:10:59;;;;;;;26.30;16.30;;;;;;;1.22;77.34;98616.40;1734969;82;21602;-41
2022/01/28 00:13:36;;;;;;;25.23;16.27;;;;;;;1.18;77.32;98604.23;1748565;79;21057;-41
2022/01/28 00:16:35;;;;;;;27.67;16.48;;;;;;;1.13;77.45;98604.41;1725667;82;21595;-41
2022/01/28 00:40:23;;;;;;;24.12;16.25;;;;;;;1.13;76.96;98577.70;1677479;84;21506;-41
2022/01/28 00:42:50;;;;;;;23.80;16.20;;;;;;;1.19;76.53;98565.77;1682426;84;21162;-41
2022/01/28 00:45:17;;;;;;;24.50;16.42;;;;;;;1.20;76.34;98566.02;1693265;84;20964;-41
2022/01/28 00:47:46;;;;;;;22.93;16.15;;;;;;;1.19;76.33;98562.31;1697878;84;21035;-42
2022/01/28 00:50:14;;;;;;;23.95;16.37;;;;;;;1.19;76.20;98564.44;1699641;84;21112;-41
2022/01/28 00:52:42;;;;;;;24.20;16.07;;;;;;;1.23;76.05;98551.23;1709935;83;21112;-41
2022/01/28 00:55:09;;;;;;;24.50;16.48;;;;;;;1.21;76.18;98554.78;1746458;82;21503;-42
2022/01/28 00:57:36;;;;;;;24.00;16.32;;;;;;;1.18;76.31;98550.84;1740334;82;21545;-41
2022/01/28 01:00:06;;;;;;;21.00;14.55;;;;;;;1.17;76.28;98547.94;1719873;83;20952;-42
2022/01/28 01:02:33;;;;;;;23.25;15.45;;;;;;;1.17;76.39;98535.92;1727406;82;21602;-41
2022/01/28 01:05:00;;;;;;;23.52;16.10;;;;;;;1.21;76.24;98536.09;1720032;83;21118;-42
2022/01/28 01:07:28;;;;;;;26.33;14.83;;;;;;;1.20;76.12;98525.18;1737969;82;21097;-42
2022/01/28 01:09:55;;;;;;;24.00;14.68;;;;;;;1.14;76.18;98518.43;1720697;82;21036;-41
2022/01/28 01:12:24;;;;;;;23.32;14.63;;;;;;;1.14;76.67;98517.88;1721504;82;21056;-41
2022/01/28 01:14:50;;;;;;;23.12;14.58;;;;;;;1.13;77.05;98510.97;1725610;82;20988;-41
2022/01/28 01:17:34;;;;;;;23.75;15.18;;;;;;;1.08;77.32;98503.13;1720633;82;21617;-41
2022/01/28 01:20:14;;;;;;;21.87;14.13;;;;;;;1.04;77.36;98508.88;1730926;81;21117;-41
2022/01/28 01:22:36;;;;;;;22.48;14.38;;;;;;;1.07;77.24;98498.10;1740529;81;20942;-41
2022/01/28 01:25:03;;;;;;;22.65;15.20;;;;;;;1.08;77.18;98497.80;1759526;81;20875;-41
2022/01/28 01:27:26;;;;;;;23.02;13.90;;;;;;;1.04;77.30;98492.08;1764001;81;21764;-41
2022/01/28 01:29:53;;;;;;;22.55;14.30;;;;;;;1.00;77.37;98487.94;1765332;81;21448;-42
2022/01/28 01:32:20;;;;;;;24.20;14.10;;;;;;;1.02;77.46;98488.38;1765190;81;21145;-42
2022/01/28 01:34:47;;;;;;;21.55;14.30;;;;;;;1.02;77.60;98469.70;1760616;81;20949;-41
2022/01/28 01:37:14;;;;;;;22.20;13.68;;;;;;;1.02;77.70;98473.70;1759623;81;21063;-41
2022/01/28 01:39:42;;;;;;;26.37;14.90;;;;;;;0.97;78.02;98472.53;1739037;81;21079;-41
2022/01/28 01:45:17;;;;;;;23.65;14.45;;;;;;;1.01;78.22;98469.48;1732883;81;21146;-41
2022/01/28 01:52:55;;;;;;;21.30;14.50;;;;;;;0.90;78.73;98452.79;1735595;81;21499;-41
2022/01/28 01:55:23;;;;;;;26.95;15.72;;;;;;;0.91;78.77;98459.15;1752214;81;20993;-41
2022/01/28 01:57:50;;;;;;;24.47;15.40;;;;;;;0.87;78.89;98450.22;1761179;81;21128;-41
2022/01/28 02:00:18;;;;;;;26.05;15.45;;;;;;;0.86;78.79;98459.31;1765116;81;20949;-41
2022/01/28 02:02:48;;;;;;;22.93;15.13;;;;;;;0.87;78.77;98450.22;1745727;81;21459;-42
2022/01/28 02:05:15;;;;;;;23.38;15.50;;;;;;;0.88;78.54;98453.88;1735460;81;21483;-41
2022/01/28 02:07:45;;;;;;;22.73;14.98;;;;;;;0.88;78.44;98453.09;1758886;81;21479;-41
2022/01/28 02:10:13;;;;;;;19.30;14.23;;;;;;;0.87;78.38;98451.55;1743934;81;21114;-42
2022/01/28 02:12:49;;;;;;;25.05;14.45;;;;;;;0.88;78.35;98447.77;1750211;81;20992;-42
2022/01/28 02:15:17;;;;;;;24.02;16.37;;;;;;;0.88;78.28;98436.54;1755998;81;21037;-41
2022/01/28 02:17:44;;;;;;;22.02;14.43;;;;;;;0.87;78.27;98439.55;1756630;81;20969;-41
2022/01/28 02:20:24;;;;;;;23.05;14.87;;;;;;;0.88;78.20;98447.21;1751062;80;21009;-41
2022/01/28 02:22:50;;;;;;;22.07;14.50;;;;;;;0.90;78.06;98436.78;1748344;80;21926;-42
2022/01/28 02:25:22;;;;;;;24.57;15.45;;;;;;;0.92;77.87;98446.02;1750842;80;20920;-41
2022/01/28 02:27:49;;;;;;;23.85;14.53;;;;;;;0.91;77.97;98444.48;1763113;80;20968;-42
2022/01/28 02:30:16;;;;;;;23.07;14.33;;;;;;;0.87;77.96;98430.97;1779332;80;21029;-41
2022/01/28 02:34:23;;;;;;;23.35;13.93;;;;;;;0.98;77.78;98433.30;1823090;78;22725;-40
2022/01/28 02:36:50;;;;;;;20.35;14.68;;;;;;;0.84;78.07;98433.49;1773935;80;21246;-40
2022/01/28 02:39:17;;;;;;;25.12;15.08;;;;;;;0.81;78.14;98424.25;1774056;79;21171;-40
2022/01/28 02:41:48;;;;;;;20.05;13.58;;;;;;;0.80;78.27;98430.69;1759036;80;20949;-40
2022/01/28 02:46:55;;;;;;;;;;;;;;;0.85;78.22;98419.84;1721763;81;20997;-41
2022/01/28 02:49:12;;;;;;;23.10;14.03;;;;;;;0.80;78.39;98425.89;1716737;82;20211;-40
2022/01/28 02:51:41;;;;;;;19.77;13.48;;;;;;;0.72;78.71;98433.38;1747489;82;21486;-40
2022/01/28 02:54:16;;;;;;;17.00;12.78;;;;;;;0.76;78.69;98442.31;1733199;82;21640;-41
2022/01/28 02:56:57;;;;;;;21.00;14.30;;;;;;;0.81;78.56;98432.80;1708372;82;20966;-41
2022/01/28 02:59:21;;;;;;;19.40;13.28;;;;;;;0.76;78.67;98422.30;1725966;82;21034;-41
2022/01/28 03:01:48;;;;;;;18.80;12.98;;;;;;;0.74;78.74;98429.83;1734103;82;21099;-42
2022/01/28 03:06:48;;;;;;;18.95;13.43;;;;;;;0.79;78.63;98428.33;1695215;82;21523;-41
2022/01/28 03:09:19;;;;;;;20.23;13.98;;;;;;;0.80;78.55;98425.89;1717657;82;21021;-41
2022/01/28 03:11:46;;;;;;;18.27;12.68;;;;;;;0.79;78.46;98418.44;1737037;82;21044;-41
2022/01/28 03:14:18;;;;;;;16.85;11.38;;;;;;;0.81;78.34;98415.47;1736808;81;21052;-41
2022/01/28 03:19:50;;;;;;;17.32;11.65;;;;;;;0.85;78.05;98415.84;1717178;81;21059;-41
2022/01/28 03:22:14;;;;;;;16.77;11.73;;;;;;;0.84;77.95;98406.81;1732675;82;21032;-41
2022/01/28 03:24:42;;;;;;;17.35;11.88;;;;;;;0.82;78.00;98402.36;1738369;82;20982;-42
2022/01/28 03:27:18;;;;;;;14.15;9.88;;;;;;;0.83;77.99;98402.57;1725891;82;20985;-41
2022/01/28 03:29:38;;;;;;;15.20;10.75;;;;;;;0.87;77.79;98391.52;1707639;82;21853;-41
2022/01/28 03:32:06;;;;;;;13.83;10.58;;;;;;;0.91;77.65;98383.10;1722480;82;21047;-41
2022/01/28 03:34:33;;;;;;;14.20;10.38;;;;;;;0.90;77.63;98388.75;1716348;83;20964;-41
2022/01/28 03:37:00;;;;;;;13.85;9.83;;;;;;;0.90;77.59;98380.74;1735401;82;21483;-41
2022/01/28 03:39:27;;;;;;;16.23;10.32;;;;;;;0.91;77.64;98383.66;1715972;82;21033;-42
2022/01/28 03:41:55;;;;;;;12.78;9.38;;;;;;;0.91;77.59;98383.66;1740722;82;21136;-42
2022/01/28 03:44:22;;;;;;;14.75;10.30;;;;;;;0.90;77.68;98368.19;1731324;82;21016;-41
2022/01/28 03:46:49;;;;;;;13.90;9.35;;;;;;;0.92;77.68;98375.89;1713528;81;21027;-42
2022/01/28 03:49:16;;;;;;;16.50;11.12;;;;;;;0.91;77.79;98375.09;1752672;81;21008;-41
2022/01/28 03:51:43;;;;;;;15.30;10.53;;;;;;;0.92;77.77;98383.89;1761368;80;21492;-41
2022/01/28 03:54:10;;;;;;;14.90;10.55;;;;;;;0.91;77.92;98376.44;1783626;79;21129;-41
2022/01/28 03:56:37;;;;;;;14.73;10.00;;;;;;;0.89;77.96;98378.63;1779451;79;20922;-42
2022/01/28 03:59:04;;;;;;;13.08;9.63;;;;;;;0.91;78.08;98374.31;1764384;79;20964;-41
2022/01/28 04:01:36;;;;;;;16.20;10.85;;;;;;;0.89;78.12;98377.29;1782207;80;21281;-41
2022/01/28 04:05:04;;;;;;;15.65;9.70;;;;;;;0.88;78.11;98369.84;1754239;79;21080;-42
2022/01/28 04:12:21;;;;;;;13.00;9.43;;;;;;;0.87;78.15;98376.84;1765724;78;21011;-42
2022/01/28 04:15:37;;;;;;;13.85;9.45;;;;;;;0.86;78.21;98372.61;1766967;80;21012;-41
2022/01/28 04:17:23;;;;;;;13.05;8.88;;;;;;;0.87;78.30;98371.51;1739988;80;21041;-41
2022/01/28 04:19:51;;;;;;;15.72;10.43;;;;;;;0.87;78.44;98370.17;1766292;80;21142;-41
2022/01/28 04:22:20;;;;;;;14.35;9.85;;;;;;;0.88;78.43;98375.72;1781374;80;21002;-42
2022/01/28 04:24:47;;;;;;;12.95;9.30;;;;;;;0.88;78.47;98373.05;1783652;80;21583;-42
2022/01/28 04:27:14;;;;;;;12.15;9.23;;;;;;;0.89;78.45;98375.95;1776282;80;21652;-41
2022/01/28 04:29:41;;;;;;;13.90;9.75;;;;;;;0.89;78.43;98378.63;1771107;80;20926;-41
2022/01/28 04:32:10;;;;;;;12.40;9.03;;;;;;;0.92;78.36;98381.98;1763013;79;21913;-42
2022/01/28 04:34:38;;;;;;;;;;;;;;;0.94;78.26;98375.78;1790993;79;20946;-41
2022/01/28 04:40:11;;;;;;;10.98;7.87;;;;;;;0.88;78.40;98381.05;1776564;80;21507;-41
2022/01/28 04:43:20;;;;;;;12.03;8.58;;;;;;;0.91;78.34;98369.77;1762742;78;21056;-42
2022/01/28 04:45:12;;;;;;;12.88;8.20;;;;;;;0.96;78.29;98369.59;1759680;80;21144;-42
2022/01/28 04:47:44;;;;;;;13.00;8.08;;;;;;;1.01;78.16;98377.42;1786210;79;20965;-41
2022/01/28 04:53:08;;;;;;;10.53;7.17;;;;;;;1.01;78.01;98364.08;1765467;80;21020;-41
2022/01/28 04:55:20;;;;;;;11.75;8.38;;;;;;;1.02;78.01;98362.95;1761848;80;21017;-42
2022/01/28 04:58:02;;;;;;;14.33;9.28;;;;;;;1.04;78.01;98351.41;1783310;79;21035;-42
2022/01/28 05:00:28;;;;;;;13.20;8.23;;;;;;;1.05;77.97;98348.19;1765757;80;20961;-42
2022/01/28 05:27:01;;;;;;;15.65;9.75;;;;;;;1.12;77.89;98326.55;1715204;83;20956;-42
2022/01/28 05:29:26;;;;;;;14.10;9.38;;;;;;;1.13;77.90;98330.80;1729335;81;21064;-42
2022/01/28 05:31:52;;;;;;;13.20;9.58;;;;;;;1.15;77.88;98331.27;1717214;82;21526;-42
2022/01/28 05:34:25;;;;;;;12.45;8.60;;;;;;;1.17;77.83;98327.70;1719470;83;21019;-41
2022/01/28 05:36:49;;;;;;;14.93;9.95;;;;;;;1.21;77.71;98329.20;1768090;80;21213;-41
2022/01/28 05:39:16;;;;;;;14.53;9.53;;;;;;;1.22;77.64;98331.53;1759490;80;21075;-42
2022/01/28 05:41:42;;;;;;;15.75;10.20;;;;;;;1.24;77.62;98336.00;1760728;80;21004;-41
2022/01/28 05:44:09;;;;;;;14.90;9.45;;;;;;;1.23;77.59;98334.44;1773823;80;21452;-42
2022/01/28 05:46:35;;;;;;;12.55;8.78;;;;;;;1.24;77.56;98330.66;1755692;80;21056;-41
2022/01/28 05:49:02;;;;;;;15.93;9.85;;;;;;;1.26;77.56;98339.66;1779830;80;21110;-41
2022/01/28 05:51:29;;;;;;;16.15;10.50;;;;;;;1.27;77.56;98330.55;1786799;80;21017;-41
2022/01/28 05:53:58;;;;;;;16.30;11.25;;;;;;;1.27;77.55;98328.67;1787124;79;21021;-42
2022/01/28 05:56:27;;;;;;;15.95;11.38;;;;;;;1.31;77.48;98332.25;1785747;79;20993;-42
2022/01/28 05:58:56;;;;;;;18.40;11.12;;;;;;;1.33;77.45;98333.83;1786818;79;21048;-42
2022/01/28 06:01:22;;;;;;;21.35;12.25;;;;;;;1.35;77.39;98336.97;1760843;79;21124;-41
2022/01/28 06:03:49;;;;;;;18.27;11.25;;;;;;;1.36;77.32;98344.63;1755532;81;20977;-42
2022/01/28 06:06:21;;;;;;;37.42;22.55;;;;;;;1.39;77.26;98337.88;1755724;80;21000;-42
2022/01/28 06:08:52;;;;;;;19.95;12.60;;;;;;;1.39;77.15;98328.53;1755550;81;20961;-42
2022/01/28 06:11:19;;;;;;;15.87;10.80;;;;;;;1.38;77.20;98329.64;1756132;80;21056;-42
2022/01/28 06:13:45;;;;;;;16.32;11.20;;;;;;;1.40;77.14;98329.55;1786505;79;21491;-41
2022/01/28 06:16:14;;;;;;;13.78;9.55;;;;;;;1.40;77.17;98328.77;1786671;80;20945;-41
2022/01/28 06:18:41;;;;;;;14.80;9.98;;;;;;;1.42;77.19;98326.54;1782121;79;21013;-42
2022/01/28 06:21:07;;;;;;;16.35;10.40;;;;;;;1.45;77.13;98332.59;1786969;80;21021;-41
2022/01/28 06:23:35;;;;;;;16.12;10.98;;;;;;;1.48;77.08;98335.94;1786983;79;21590;-42
2022/01/28 06:26:04;;;;;;;14.87;10.75;;;;;;;1.49;76.98;98326.82;1786931;79;21121;-42
2022/01/28 06:28:31;;;;;;;18.07;10.50;;;;;;;1.51;76.95;98332.60;1785493;79;20981;-42
2022/01/28 06:30:57;;;;;;;17.07;10.80;;;;;;;1.52;76.98;98326.16;1792382;79;21012;-42
2022/01/28 06:33:24;;;;;;;17.40;10.75;;;;;;;1.55;76.88;98330.88;1703453;82;21108;-42
2022/01/28 06:35:50;;;;;;;16.35;10.35;;;;;;;1.57;76.86;98322.75;1691931;82;21079;-42
2022/01/28 06:38:17;;;;;;;18.45;11.08;;;;;;;1.59;76.78;98324.55;1757044;80;21148;-41
2022/01/28 06:40:44;;;;;;;18.75;11.90;;;;;;;1.61;76.69;98334.34;1761201;81;21000;-42
2022/01/28 06:43:12;;;;;;;35.30;24.23;;;;;;;1.62;76.59;98333.80;1756510;79;21489;-41
2022/01/28 06:45:43;;;;;;;14.83;11.00;;;;;;;1.61;76.57;98330.89;1759339;81;21085;-42
2022/01/28 06:48:12;;;;;;;13.22;9.68;;;;;;;1.62;76.61;98337.80;1760806;79;21001;-41
2022/01/28 06:50:45;;;;;;;15.72;10.15;;;;;;;1.63;76.53;98338.03;1749266;81;21113;-42
2022/01/28 06:53:10;;;;;;;15.68;10.43;;;;;;;1.65;76.48;98330.46;1765922;80;21004;-41
2022/01/28 06:55:37;;;;;;;15.75;10.23;;;;;;;1.69;76.37;98332.73;1751383;80;21568;-42
2022/01/28 06:58:05;;;;;;;17.65;10.30;;;;;;;1.72;76.19;98325.39;1765839;81;21072;-42
2022/01/28 07:00:41;;;;;;;14.78;10.43;;;;;;;1.77;75.88;98321.74;1772741;81;21021;-42
2022/01/28 07:03:04;;;;;;;16.48;9.98;;;;;;;1.81;75.62;98315.41;1760788;79;21614;-41
2022/01/28 07:05:31;;;;;;;14.25;9.28;;;;;;;1.89;75.48;98321.81;1741958;81;21045;-42
2022/01/28 07:07:57;;;;;;;12.13;8.75;;;;;;;1.92;75.10;98329.95;1742264;82;20998;-42
2022/01/28 07:10:24;;;;;;;14.75;9.38;;;;;;;2.01;75.00;98331.99;1742118;82;21025;-42
2022/01/28 07:12:54;;;;;;;13.65;9.73;;;;;;;2.04;74.52;98316.63;1744824;81;21642;-42
2022/01/28 07:15:19;;;;;;;12.70;9.20;;;;;;;2.08;74.41;98317.52;1771586;79;21139;-41
2022/01/28 07:17:46;;;;;;;12.07;8.68;;;;;;;2.12;74.27;98317.12;1755901;81;20997;-42
2022/01/28 07:20:13;;;;;;;13.18;9.30;;;;;;;2.14;74.03;98315.44;1772439;79;20982;-41
2022/01/28 07:22:39;;;;;;;14.60;10.38;;;;;;;2.15;73.88;98323.69;1771928;81;20971;-41
2022/01/28 07:25:07;;;;;;;16.87;12.78;;;;;;;2.18;73.82;98319.00;1766935;81;21017;-42
2022/01/28 07:27:34;;;;;;;17.25;12.07;;;;;;;2.18;73.62;98313.11;1755826;79;21895;-42
2022/01/28 07:30:00;;;;;;;15.78;11.57;;;;;;;2.22;73.48;98319.15;1768439;81;21049;-42
2022/01/28 07:32:27;;;;;;;178.07;86.78;;;;;;;2.26;73.52;98318.72;1792776;79;20916;-42
2022/01/28 07:34:53;;;;;;;58.40;30.25;;;;;;;2.29;73.37;98319.38;1772071;79;21046;-41
2022/01/28 07:37:20;;;;;;;19.55;12.95;;;;;;;2.31;73.23;98325.19;1771539;80;21019;-41
2022/01/28 07:39:47;;;;;;;14.00;9.70;;;;;;;2.30;73.11;98321.73;1772729;80;21148;-42
2022/01/28 07:42:13;;;;;;;15.78;10.68;;;;;;;2.31;73.10;98325.19;1772846;81;20923;-42
2022/01/28 07:44:40;;;;;;;16.12;11.22;;;;;;;2.28;72.86;98321.82;1758563;79;21002;-42
2022/01/28 07:47:07;;;;;;;13.93;10.10;;;;;;;2.24;73.00;98326.27;1760791;81;21508;-42
2022/01/28 07:49:33;;;;;;;15.10;10.38;;;;;;;2.19;73.00;98328.05;1740297;81;21033;-41
2022/01/28 07:52:00;;;;;;;15.85;9.88;;;;;;;2.19;73.09;98319.23;1759927;81;21143;-41
2022/01/28 07:54:26;;;;;;;16.05;10.38;;;;;;;2.17;73.21;98327.61;1752316;81;21032;-41
2022/01/28 07:56:54;;;;;;;13.85;9.15;;;;;;;2.16;73.18;98314.01;1787961;79;21079;-41
2022/01/28 07:59:21;;;;;;;15.05;10.00;;;;;;;2.17;73.06;98318.80;1803605;79;21021;-42
2022/01/28 08:01:48;;;;;;;13.45;9.18;;;;;;;2.17;73.04;98316.13;1759077;79;21515;-41
2022/01/28 08:04:14;;;;;;;11.80;9.05;;;;;;;2.16;73.08;98307.33;1768429;79;21137;-41
2022/01/28 08:06:42;;;;;;;14.45;9.83;;;;;;;2.17;73.03;98314.24;1753497;79;20934;-42
2022/01/28 08:09:09;;;;;;;14.33;9.00;;;;;;;2.16;73.00;98306.54;1708965;84;20937;-41
2022/01/28 08:11:36;;;;;;;12.50;9.88;;;;;;;2.13;73.10;98305.29;1708885;84;21012;-41
2022/01/28 08:14:03;;;;;;;13.72;9.25;;;;;;;2.10;73.29;98311.31;1722837;82;20998;-41
2022/01/28 08:16:30;;;;;;;12.13;9.03;;;;;;;2.05;73.47;98305.38;1721311;83;21154;-42
2022/01/28 08:18:57;;;;;;;20.35;13.75;;;;;;;2.01;73.70;98319.17;1724661;83;20999;-41
2022/01/28 08:21:23;;;;;;;13.70;9.05;;;;;;;1.99;73.88;98295.99;1736424;82;21084;-41
2022/01/28 08:23:51;;;;;;;12.20;8.98;;;;;;;2.00;73.86;98297.01;1722096;83;21042;-41
2022/01/28 08:26:19;;;;;;;15.05;10.00;;;;;;;2.05;73.83;98300.81;1720003;83;21025;-41
2022/01/28 08:28:47;;;;;;;12.95;9.13;;;;;;;2.08;73.59;98306.83;1700243;82;21575;-40
2022/01/28 08:31:14;;;;;;;13.70;9.33;;;;;;;2.12;73.62;98305.64;1732511;82;20977;-40
2022/01/28 08:33:41;;;;;;;24.52;16.62;;;;;;;2.11;73.57;98307.53;1732367;82;20910;-40
2022/01/28 08:36:10;;;;;;;14.20;10.05;;;;;;;2.14;73.60;98309.53;1725682;82;21008;-41
2022/01/28 08:38:44;;;;;;;17.27;11.35;;;;;;;2.18;73.52;98306.97;1727646;82;21032;-40
2022/01/28 08:41:06;;;;;;;16.87;11.55;;;;;;;2.21;73.41;98317.58;1729660;82;21148;-40
2022/01/28 08:43:33;;;;;;;22.52;14.68;;;;;;;2.22;73.37;98318.59;1730254;82;20999;-41
2022/01/28 08:45:59;;;;;;;13.62;10.13;;;;;;;2.25;73.25;98325.95;1726794;81;21074;-41
2022/01/28 08:48:26;;;;;;;14.38;10.60;;;;;;;2.30;73.27;98315.60;1744782;81;21084;-41
2022/01/28 08:50:53;;;;;;;16.75;10.78;;;;;;;2.30;73.22;98316.94;1753860;81;21060;-41
2022/01/28 08:53:20;;;;;;;15.85;10.75;;;;;;;2.30;73.16;98314.27;1727073;83;21892;-41
2022/01/28 08:55:46;;;;;;;22.55;14.55;;;;;;;2.30;73.21;98312.92;1728397;81;21027;-41
2022/01/28 08:58:13;;;;;;;18.85;12.25;;;;;;;2.00;73.17;98259.59;1728736;80;20918;-41
2022/01/28 09:00:45;;;;;;;17.17;11.53;;;;;;;2.33;73.14;98311.70;1730844;81;21051;-41
2022/01/28 09:03:10;;;;;;;16.23;10.50;;;;;;;2.33;73.02;98306.35;1730513;81;21618;-41
2022/01/28 09:05:36;;;;;;;15.05;10.82;;;;;;;2.33;72.99;98302.89;1750244;80;21924;-41
2022/01/28 09:08:09;;;;;;;13.50;9.48;;;;;;;2.31;72.93;98303.80;1747398;81;21011;-41
2022/01/28 09:10:38;;;;;;;13.32;10.10;;;;;;;2.33;72.86;98302.89;1745184;81;21060;-41
2022/01/28 09:15:41;;;;;;;14.85;11.25;;;;;;;2.37;72.85;98290.45;1756593;81;21053;-41
2022/01/28 09:18:09;;;;;;;17.65;13.22;;;;;;;2.39;72.65;98288.20;1751866;81;21848;-41
2022/01/28 09:20:36;;;;;;;12.65;9.75;;;;;;;2.42;72.55;98282.97;1755712;81;21026;-41
2022/01/28 09:23:04;;;;;;;13.20;9.83;;;;;;;2.47;72.60;98277.98;1760180;80;21024;-41
2022/01/28 09:25:31;;;;;;;15.40;9.93;;;;;;;2.56;72.50;98275.99;1733733;81;21106;-41
2022/01/28 09:27:57;;;;;;;14.43;10.63;;;;;;;2.68;72.25;98283.23;1726549;82;21032;-41
2022/01/28 09:30:26;;;;;;;51.77;30.23;;;;;;;2.74;71.84;98274.66;1715943;82;21370;-41
2022/01/28 09:32:53;;;;;;;24.00;14.93;;;;;;;2.77;71.69;98268.63;1726177;83;21039;-41
2022/01/28 09:35:20;;;;;;;54.08;30.23;;;;;;;2.76;71.62;98264.97;1726082;81;21003;-41
2022/01/28 09:37:46;;;;;;;26.07;17.80;;;;;;;2.73;71.72;98260.27;1712653;81;21063;-41
2022/01/28 09:40:15;;;;;;;20.50;14.05;;;;;;;2.71;71.72;98259.25;1734751;80;21022;-41
2022/01/28 09:42:44;;;;;;;17.95;11.65;;;;;;;2.71;71.85;98252.56;1740294;81;21145;-41
2022/01/28 09:45:10;;;;;;;16.80;12.50;;;;;;;2.73;71.89;98250.91;1756803;81;21083;-41
2022/01/28 09:47:37;;;;;;;17.00;11.95;;;;;;;2.73;71.89;98253.02;1737131;81;21472;-41
2022/01/28 09:50:05;;;;;;;14.33;11.22;;;;;;;2.73;71.98;98249.01;1728817;81;21490;-42
2022/01/28 09:52:33;;;;;;;15.60;11.45;;;;;;;2.74;72.04;98241.21;1730040;81;21095;-41
2022/01/28 09:54:59;;;;;;;15.58;11.85;;;;;;;2.72;72.06;98244.77;1726804;83;21207;-41
2022/01/28 09:57:26;;;;;;;15.43;11.30;;;;;;;2.74;72.13;98243.89;1749285;81;21027;-41
2022/01/28 09:59:53;;;;;;;15.88;12.45;;;;;;;2.75;72.08;98236.09;1738487;81;21053;-41
2022/01/28 10:02:19;;;;;;;17.30;13.35;;;;;;;2.77;72.14;98227.15;1733939;81;20984;-41
2022/01/28 10:04:46;;;;;;;16.23;11.95;;;;;;;2.82;72.14;98228.81;1711726;82;21041;-41
2022/01/28 10:07:16;;;;;;;17.23;12.15;;;;;;;2.91;71.93;98218.77;1753849;81;21168;-41
2022/01/28 10:10:00;;;;;;;15.70;12.55;;;;;;;3.09;71.69;98219.31;1754216;81;20967;-41
2022/01/28 10:12:36;;;;;;;14.85;11.65;;;;;;;3.33;71.32;98203.19;1746085;80;20908;-41
2022/01/28 10:15:03;;;;;;;15.20;11.63;;;;;;;3.53;70.24;98198.22;1753286;81;20953;-41
2022/01/28 10:17:55;;;;;;;14.85;11.60;;;;;;;3.70;69.37;98201.93;1768719;80;21326;-41
2022/01/28 10:20:23;;;;;;;16.90;12.63;;;;;;;3.79;68.70;98197.75;1721940;83;21504;-41
2022/01/28 10:22:58;;;;;;;16.05;11.03;;;;;;;3.79;68.62;98192.39;1719929;83;21024;-41
2022/01/28 10:25:32;;;;;;;14.18;11.03;;;;;;;3.77;68.63;98194.09;1750400;81;21085;-42
2022/01/28 10:28:03;;;;;;;13.45;9.63;;;;;;;3.42;68.32;98131.50;1724402;83;21040;-41
2022/01/28 10:30:32;;;;;;;14.00;10.58;;;;;;;3.69;68.36;98186.18;1752574;81;21540;-41
2022/01/28 10:33:22;;;;;;;14.50;11.15;;;;;;;3.59;68.57;98186.11;1692920;83;21097;-41
2022/01/28 10:35:54;;;;;;;;;;;;;;;3.49;68.89;98183.36;1725978;82;20910;-42
2022/01/28 10:38:35;;;;;;;15.38;11.57;;;;;;;3.46;69.14;98165.30;1750062;80;20495;-41
2022/01/28 10:41:13;;;;;;;11.68;8.73;;;;;;;3.50;69.03;98154.67;1738855;81;21002;-42
2022/01/28 10:43:46;;;;;;;32.83;18.90;;;;;;;3.60;68.75;98166.23;1744871;81;21088;-41
2022/01/28 10:46:26;;;;;;;75.75;39.73;;;;;;;3.79;68.49;98164.24;1753253;81;21146;-41
2022/01/28 10:49:00;;;;;;;109.20;48.15;;;;;;;4.10;67.30;98158.14;1755250;81;20995;-42
2022/01/28 10:51:42;;;;;;;29.87;19.15;;;;;;;4.37;66.38;98146.53;1756825;81;21078;-42
2022/01/28 10:54:11;;;;;;;11.08;8.38;;;;;;;4.53;65.34;98155.36;1745549;80;21522;-42
2022/01/28 10:56:59;;;;;;;12.23;8.18;;;;;;;4.53;64.98;98146.52;1751905;80;21031;-42
2022/01/28 10:59:35;;;;;;;11.90;8.48;;;;;;;4.52;65.03;98148.98;1756473;81;21087;-42
2022/01/28 11:02:03;;;;;;;12.10;8.65;;;;;;;4.57;65.28;98151.41;1747524;80;20988;-42
2022/01/28 11:04:30;;;;;;;12.33;8.60;;;;;;;4.66;64.76;98145.28;1749727;80;21007;-42
2022/01/28 11:07:00;;;;;;;12.05;8.28;;;;;;;4.71;64.73;98143.11;1738326;82;20977;-42
2022/01/28 11:09:26;;;;;;;11.57;8.13;;;;;;;4.69;64.13;98147.28;1743195;82;25220;-42
2022/01/28 11:11:53;;;;;;;9.13;7.53;;;;;;;4.63;64.38;98137.94;1742049;82;21858;-42
2022/01/28 11:14:21;;;;;;;10.58;7.90;;;;;;;4.47;64.62;98147.91;1726264;83;21876;-42
2022/01/28 11:16:48;;;;;;;9.80;7.35;;;;;;;4.30;65.00;98147.16;1756192;81;20990;-42
2022/01/28 11:19:18;;;;;;;11.28;6.90;;;;;;;4.12;65.40;98150.52;1756410;81;20993;-42
2022/01/28 11:21:56;;;;;;;9.03;6.90;;;;;;;3.98;66.01;98143.46;1723626;81;21039;-42
2022/01/28 11:24:45;;;;;;;9.10;6.95;;;;;;;3.79;66.47;98134.20;1754721;81;21114;-41
2022/01/28 11:27:29;;;;;;;10.78;7.65;;;;;;;3.73;66.87;98144.95;1756934;81;21039;-41
2022/01/28 11:30:25;;;;;;;9.88;7.30;;;;;;;3.58;67.21;98144.38;1752419;81;21349;-42
2022/01/28 11:33:09;;;;;;;9.13;7.15;;;;;;;3.50;67.48;98142.05;1744162;81;21087;-42
2022/01/28 11:35:52;;;;;;;11.45;7.08;;;;;;;3.46;67.64;98135.05;1744922;81;20999;-42
2022/01/28 11:38:31;;;;;;;11.40;8.80;;;;;;;3.46;67.67;98140.41;1705341;83;21168;-42
2022/01/28 11:41:03;;;;;;;9.75;7.12;;;;;;;3.51;67.65;98132.13;1705342;81;21049;-42
2022/01/28 11:43:31;;;;;;;8.95;7.05;;;;;;;3.55;67.47;98125.51;1763997;81;21006;-41
2022/01/28 11:46:19;;;;;;;10.13;8.38;;;;;;;3.56;67.29;98129.20;1765936;79;20998;-42
2022/01/28 11:49:04;;;;;;;12.82;10.20;;;;;;;3.57;67.21;98128.08;1724291;82;21082;-41
2022/01/28 11:51:41;;;;;;;16.32;11.30;;;;;;;3.56;67.08;98131.09;1723530;83;21148;-41
2022/01/28 11:54:15;;;;;;;17.95;13.60;;;;;;;3.51;66.89;98128.10;1704853;83;21044;-41
2022/01/28 11:57:10;;;;;;;43.05;24.85;;;;;;;3.45;66.69;98123.55;1714721;83;21050;-42
2022/01/28 11:59:37;;;;;;;46.10;26.75;;;;;;;3.43;67.04;98115.09;1718634;81;21105;-41
2022/01/28 12:02:07;;;;;;;22.62;16.20;;;;;;;3.35;66.92;98122.70;1719568;83;21102;-41
2022/01/28 12:04:39;;;;;;;46.30;30.10;;;;;;;3.36;66.85;98116.23;1687378;82;21977;-41
2022/01/28 12:07:18;;;;;;;22.42;13.70;;;;;;;3.41;66.92;98114.64;1701492;81;20981;-42
2022/01/28 12:09:50;;;;;;;10.55;7.58;;;;;;;3.42;66.81;98107.39;1709766;83;21016;-41
2022/01/28 12:12:49;;;;;;;8.83;6.80;;;;;;;3.42;66.83;98115.42;1722343;82;21057;-41
2022/01/28 12:15:17;;;;;;;8.45;6.50;;;;;;;3.38;66.69;98110.54;1720831;83;21014;-42
2022/01/28 12:17:49;;;;;;;10.43;6.28;;;;;;;3.32;66.77;98108.66;1725549;83;21861;-41
2022/01/28 12:20:24;;;;;;;9.13;5.92;;;;;;;3.31;66.85;98103.64;1722069;81;20931;-42
2022/01/28 12:23:04;;;;;;;9.25;6.25;;;;;;;3.33;66.91;98096.83;1724328;81;21087;-40
2022/01/28 12:25:41;;;;;;;10.80;6.83;;;;;;;3.31;66.74;98095.05;1724385;83;21016;-41
2022/01/28 12:28:23;;;;;;;9.55;6.45;;;;;;;3.27;66.82;98098.75;1716102;82;21028;-41
2022/01/28 12:31:01;;;;;;;9.28;6.50;;;;;;;3.22;67.02;98089.62;1719791;81;21818;-41
2022/01/28 12:33:32;;;;;;;118.10;62.60;;;;;;;3.18;67.24;98088.19;1711617;81;21529;-41
2022/01/28 12:36:01;;;;;;;28.05;17.95;;;;;;;3.18;67.08;98096.78;1722670;82;20981;-41
2022/01/28 12:38:31;;;;;;;44.80;27.25;;;;;;;3.22;67.05;98088.28;1717196;82;21549;-41
2022/01/28 12:41:05;;;;;;;59.45;37.33;;;;;;;3.24;66.96;98090.07;1747351;81;21026;-41
2022/01/28 12:43:26;;;;;;;22.03;14.67;;;;;;;3.20;67.00;98084.59;1744526;82;21111;-41
2022/01/28 12:46:00;;;;;;;19.90;14.30;;;;;;;3.16;67.03;98082.94;1746288;82;21216;-41
2022/01/28 12:48:26;;;;;;;14.18;10.15;;;;;;;3.10;67.12;98079.72;1779612;80;21713;-40
2022/01/28 12:50:54;;;;;;;11.00;7.75;;;;;;;3.05;67.38;98078.07;1783505;80;20953;-40
2022/01/28 12:53:35;;;;;;;12.78;9.63;;;;;;;3.08;67.50;98078.52;1783211;80;21012;-41
2022/01/28 12:56:04;;;;;;;19.98;12.88;;;;;;;3.12;67.46;98077.50;1781293;78;21147;-41
2022/01/28 12:58:36;;;;;;;10.83;7.63;;;;;;;3.09;67.50;98080.87;1764285;80;21507;-41